sensor_id;sensor_type;location;lat;lon;timestamp;P1;durP1;ratioP1;P2;durP2;ratioP2
10031;SDS011;5056;44.272;19.892;2023-11-19T00:00:29;18.67;;;15.77;;
10031;SDS011;5056;44.272;19.892;2023-11-19T00:02:58;15.97;;;13.63;;
10031;SDS011;5056;44.272;19.892;2023-11-19T00:05:26;12.37;;;10.93;;
10031;SDS011;5056;44.272;19.892;2023-11-19T00:07:55;13.43;;;11.23;;
10031;SDS011;5056;44.272;19.892;2023-11-19T00:10:24;25.63;;;20.70;;
10031;SDS011;5056;44.272;19.892;2023-11-19T00:12:51;15.30;;;13.70;;
10031;SDS011;5056;44.272;19.892;2023-11-19T00:15:18;15.43;;;13.43;;
10031;SDS011;5056;44.272;19.892;2023-11-19T00:17:45;14.60;;;11.40;;
10031;SDS011;5056;44.272;19.892;2023-11-19T00:20:16;11.23;;;8.70;;
10031;SDS011;5056;44.272;19.892;2023-11-19T00:22:44;11.57;;;9.93;;
10031;SDS011;5056;44.272;19.892;2023-11-19T00:25:13;15.73;;;12.60;;
10031;SDS011;5056;44.272;19.892;2023-11-19T00:27:42;13.63;;;11.97;;
10031;SDS011;5056;44.272;19.892;2023-11-19T00:30:11;15.57;;;12.07;;
10031;SDS011;5056;44.272;19.892;2023-11-19T00:32:38;12.33;;;9.40;;
10031;SDS011;5056;44.272;19.892;2023-11-19T00:35:06;14.07;;;11.47;;
10031;SDS011;5056;44.272;19.892;2023-11-19T00:37:37;13.87;;;11.30;;
10031;SDS011;5056;44.272;19.892;2023-11-19T00:40:05;12.37;;;9.43;;
10031;SDS011;5056;44.272;19.892;2023-11-19T00:42:33;11.70;;;9.23;;
10031;SDS011;5056;44.272;19.892;2023-11-19T00:44:59;12.67;;;10.57;;
10031;SDS011;5056;44.272;19.892;2023-11-19T00:47:27;12.57;;;10.13;;
10031;SDS011;5056;44.272;19.892;2023-11-19T00:49:56;12.37;;;8.53;;
10031;SDS011;5056;44.272;19.892;2023-11-19T00:52:24;11.00;;;9.27;;
10031;SDS011;5056;44.272;19.892;2023-11-19T00:54:56;33.33;;;21.87;;
10031;SDS011;5056;44.272;19.892;2023-11-19T00:57:23;24.40;;;16.07;;
10031;SDS011;5056;44.272;19.892;2023-11-19T00:59:52;21.03;;;15.43;;
10031;SDS011;5056;44.272;19.892;2023-11-19T01:02:18;20.40;;;15.43;;
10031;SDS011;5056;44.272;19.892;2023-11-19T01:04:46;21.27;;;15.43;;
10031;SDS011;5056;44.272;19.892;2023-11-19T01:07:13;34.67;;;29.30;;
10031;SDS011;5056;44.272;19.892;2023-11-19T01:09:41;56.63;;;45.07;;
10031;SDS011;5056;44.272;19.892;2023-11-19T01:12:10;86.20;;;64.73;;
10031;SDS011;5056;44.272;19.892;2023-11-19T01:14:38;70.77;;;53.53;;
10031;SDS011;5056;44.272;19.892;2023-11-19T01:17:06;69.93;;;53.67;;
10031;SDS011;5056;44.272;19.892;2023-11-19T01:19:34;34.30;;;28.50;;
10031;SDS011;5056;44.272;19.892;2023-11-19T01:22:03;17.93;;;15.17;;
10031;SDS011;5056;44.272;19.892;2023-11-19T01:24:30;16.73;;;13.93;;
10031;SDS011;5056;44.272;19.892;2023-11-19T01:26:57;16.43;;;14.63;;
10031;SDS011;5056;44.272;19.892;2023-11-19T01:29:26;15.83;;;12.63;;
10031;SDS011;5056;44.272;19.892;2023-11-19T01:31:53;12.90;;;10.73;;
10031;SDS011;5056;44.272;19.892;2023-11-19T01:34:21;17.23;;;15.33;;
10031;SDS011;5056;44.272;19.892;2023-11-19T01:36:48;26.13;;;23.43;;
10031;SDS011;5056;44.272;19.892;2023-11-19T01:39:17;35.23;;;32.07;;
10031;SDS011;5056;44.272;19.892;2023-11-19T01:41:45;24.87;;;22.47;;
10031;SDS011;5056;44.272;19.892;2023-11-19T01:44:10;20.50;;;18.30;;
10031;SDS011;5056;44.272;19.892;2023-11-19T01:46:43;16.93;;;15.33;;
10031;SDS011;5056;44.272;19.892;2023-11-19T01:49:12;11.93;;;10.83;;
10031;SDS011;5056;44.272;19.892;2023-11-19T01:51:41;9.00;;;8.13;;
10031;SDS011;5056;44.272;19.892;2023-11-19T01:54:08;13.80;;;12.00;;
10031;SDS011;5056;44.272;19.892;2023-11-19T01:56:35;17.80;;;14.77;;
10031;SDS011;5056;44.272;19.892;2023-11-19T01:59:02;18.47;;;14.27;;
10031;SDS011;5056;44.272;19.892;2023-11-19T02:01:29;25.93;;;20.13;;
10031;SDS011;5056;44.272;19.892;2023-11-19T02:04:01;33.30;;;26.43;;
10031;SDS011;5056;44.272;19.892;2023-11-19T02:06:29;21.00;;;17.60;;
10031;SDS011;5056;44.272;19.892;2023-11-19T02:08:58;18.90;;;15.53;;
10031;SDS011;5056;44.272;19.892;2023-11-19T02:11:27;20.57;;;15.63;;
10031;SDS011;5056;44.272;19.892;2023-11-19T02:13:55;16.50;;;13.47;;
10031;SDS011;5056;44.272;19.892;2023-11-19T02:16:22;12.67;;;10.30;;
10031;SDS011;5056;44.272;19.892;2023-11-19T02:18:49;7.30;;;6.33;;
10031;SDS011;5056;44.272;19.892;2023-11-19T02:21:20;8.27;;;7.00;;
10031;SDS011;5056;44.272;19.892;2023-11-19T02:23:47;6.73;;;6.10;;
10031;SDS011;5056;44.272;19.892;2023-11-19T02:26:16;8.37;;;6.67;;
10031;SDS011;5056;44.272;19.892;2023-11-19T02:28:53;10.10;;;7.40;;
10031;SDS011;5056;44.272;19.892;2023-11-19T02:31:20;10.97;;;7.87;;
10031;SDS011;5056;44.272;19.892;2023-11-19T02:33:48;9.23;;;7.67;;
10031;SDS011;5056;44.272;19.892;2023-11-19T02:36:16;8.63;;;7.43;;
10031;SDS011;5056;44.272;19.892;2023-11-19T02:38:43;11.40;;;8.43;;
10031;SDS011;5056;44.272;19.892;2023-11-19T02:41:11;10.30;;;8.37;;
10031;SDS011;5056;44.272;19.892;2023-11-19T02:43:40;10.47;;;7.47;;
10031;SDS011;5056;44.272;19.892;2023-11-19T02:46:12;8.63;;;7.50;;
10031;SDS011;5056;44.272;19.892;2023-11-19T02:48:38;8.47;;;7.27;;
10031;SDS011;5056;44.272;19.892;2023-11-19T02:51:06;8.17;;;7.33;;
10031;SDS011;5056;44.272;19.892;2023-11-19T02:53:35;9.30;;;8.03;;
10031;SDS011;5056;44.272;19.892;2023-11-19T02:56:02;8.90;;;7.77;;
10031;SDS011;5056;44.272;19.892;2023-11-19T02:58:42;7.03;;;6.33;;
10031;SDS011;5056;44.272;19.892;2023-11-19T03:01:12;8.97;;;6.83;;
10031;SDS011;5056;44.272;19.892;2023-11-19T03:03:48;9.53;;;7.77;;
10031;SDS011;5056;44.272;19.892;2023-11-19T03:06:19;7.57;;;6.87;;
10031;SDS011;5056;44.272;19.892;2023-11-19T03:08:47;8.80;;;7.90;;
10031;SDS011;5056;44.272;19.892;2023-11-19T03:11:14;9.47;;;8.57;;
10031;SDS011;5056;44.272;19.892;2023-11-19T03:13:41;10.80;;;9.73;;
10031;SDS011;5056;44.272;19.892;2023-11-19T03:16:08;8.70;;;7.90;;
10031;SDS011;5056;44.272;19.892;2023-11-19T03:18:39;9.63;;;8.10;;
10031;SDS011;5056;44.272;19.892;2023-11-19T03:21:06;7.97;;;7.17;;
10031;SDS011;5056;44.272;19.892;2023-11-19T03:23:33;9.87;;;8.03;;
10031;SDS011;5056;44.272;19.892;2023-11-19T03:26:05;10.50;;;9.47;;
10031;SDS011;5056;44.272;19.892;2023-11-19T03:28:33;8.07;;;7.23;;
10031;SDS011;5056;44.272;19.892;2023-11-19T03:31:00;9.97;;;7.63;;
10031;SDS011;5056;44.272;19.892;2023-11-19T03:33:34;8.90;;;8.00;;
10031;SDS011;5056;44.272;19.892;2023-11-19T03:36:04;8.10;;;7.20;;
10031;SDS011;5056;44.272;19.892;2023-11-19T03:38:32;8.97;;;7.93;;
10031;SDS011;5056;44.272;19.892;2023-11-19T03:41:01;9.90;;;8.60;;
10031;SDS011;5056;44.272;19.892;2023-11-19T03:43:37;10.67;;;9.00;;
10031;SDS011;5056;44.272;19.892;2023-11-19T03:46:04;12.90;;;9.67;;
10031;SDS011;5056;44.272;19.892;2023-11-19T03:48:42;11.77;;;9.50;;
10031;SDS011;5056;44.272;19.892;2023-11-19T03:51:11;11.43;;;10.17;;
10031;SDS011;5056;44.272;19.892;2023-11-19T03:53:40;15.23;;;11.07;;
10031;SDS011;5056;44.272;19.892;2023-11-19T03:56:09;13.90;;;10.50;;
10031;SDS011;5056;44.272;19.892;2023-11-19T03:58:38;11.57;;;9.47;;
10031;SDS011;5056;44.272;19.892;2023-11-19T04:01:06;10.73;;;9.43;;
10031;SDS011;5056;44.272;19.892;2023-11-19T04:03:39;12.67;;;10.33;;
10031;SDS011;5056;44.272;19.892;2023-11-19T04:06:08;12.43;;;10.03;;
10031;SDS011;5056;44.272;19.892;2023-11-19T04:08:41;11.93;;;9.50;;
10031;SDS011;5056;44.272;19.892;2023-11-19T04:11:08;11.53;;;9.60;;
10031;SDS011;5056;44.272;19.892;2023-11-19T04:13:36;13.07;;;9.67;;
10031;SDS011;5056;44.272;19.892;2023-11-19T04:16:03;14.80;;;11.40;;
10031;SDS011;5056;44.272;19.892;2023-11-19T04:18:34;13.30;;;10.93;;
10031;SDS011;5056;44.272;19.892;2023-11-19T04:21:01;17.00;;;11.80;;
10031;SDS011;5056;44.272;19.892;2023-11-19T04:23:28;17.87;;;13.53;;
10031;SDS011;5056;44.272;19.892;2023-11-19T04:25:59;17.23;;;12.67;;
10031;SDS011;5056;44.272;19.892;2023-11-19T04:28:29;16.50;;;11.83;;
10031;SDS011;5056;44.272;19.892;2023-11-19T04:30:56;15.63;;;11.93;;
10031;SDS011;5056;44.272;19.892;2023-11-19T04:33:23;17.67;;;11.93;;
10031;SDS011;5056;44.272;19.892;2023-11-19T04:35:50;17.23;;;13.47;;
10031;SDS011;5056;44.272;19.892;2023-11-19T04:38:19;16.40;;;12.63;;
10031;SDS011;5056;44.272;19.892;2023-11-19T04:40:47;17.40;;;12.60;;
10031;SDS011;5056;44.272;19.892;2023-11-19T04:43:15;16.47;;;12.13;;
10031;SDS011;5056;44.272;19.892;2023-11-19T04:45:42;17.20;;;13.20;;
10031;SDS011;5056;44.272;19.892;2023-11-19T04:48:09;14.27;;;10.93;;
10031;SDS011;5056;44.272;19.892;2023-11-19T04:50:37;17.47;;;10.93;;
10031;SDS011;5056;44.272;19.892;2023-11-19T04:53:04;15.53;;;11.77;;
10031;SDS011;5056;44.272;19.892;2023-11-19T04:55:32;19.37;;;15.40;;
10031;SDS011;5056;44.272;19.892;2023-11-19T04:57:59;17.47;;;13.77;;
10031;SDS011;5056;44.272;19.892;2023-11-19T05:00:36;20.87;;;14.67;;
10031;SDS011;5056;44.272;19.892;2023-11-19T05:05:33;22.90;;;16.20;;
10031;SDS011;5056;44.272;19.892;2023-11-19T05:08:00;19.13;;;15.77;;
10031;SDS011;5056;44.272;19.892;2023-11-19T05:10:27;22.50;;;17.83;;
10031;SDS011;5056;44.272;19.892;2023-11-19T05:12:54;27.37;;;20.37;;
10031;SDS011;5056;44.272;19.892;2023-11-19T05:15:24;31.77;;;24.00;;
10031;SDS011;5056;44.272;19.892;2023-11-19T05:20:19;45.90;;;32.67;;
10031;SDS011;5056;44.272;19.892;2023-11-19T05:22:46;58.43;;;41.33;;
10031;SDS011;5056;44.272;19.892;2023-11-19T05:25:13;33.50;;;26.00;;
10031;SDS011;5056;44.272;19.892;2023-11-19T05:27:42;36.53;;;29.77;;
10031;SDS011;5056;44.272;19.892;2023-11-19T05:30:10;41.30;;;35.92;;
10031;SDS011;5056;44.272;19.892;2023-11-19T05:32:37;48.70;;;38.60;;
10031;SDS011;5056;44.272;19.892;2023-11-19T05:35:07;46.47;;;35.47;;
10031;SDS011;5056;44.272;19.892;2023-11-19T05:37:36;44.17;;;36.17;;
10031;SDS011;5056;44.272;19.892;2023-11-19T05:40:05;40.77;;;33.17;;
10031;SDS011;5056;44.272;19.892;2023-11-19T05:42:39;43.53;;;32.83;;
10031;SDS011;5056;44.272;19.892;2023-11-19T05:45:07;42.03;;;30.73;;
10031;SDS011;5056;44.272;19.892;2023-11-19T05:47:37;36.33;;;28.13;;
10031;SDS011;5056;44.272;19.892;2023-11-19T05:50:08;37.07;;;27.53;;
10031;SDS011;5056;44.272;19.892;2023-11-19T05:52:36;40.77;;;27.93;;
10031;SDS011;5056;44.272;19.892;2023-11-19T05:55:03;38.03;;;26.70;;
10031;SDS011;5056;44.272;19.892;2023-11-19T05:57:34;55.53;;;36.37;;
10031;SDS011;5056;44.272;19.892;2023-11-19T06:00:02;146.73;;;83.87;;
10031;SDS011;5056;44.272;19.892;2023-11-19T06:02:32;64.20;;;42.63;;
10031;SDS011;5056;44.272;19.892;2023-11-19T06:05:00;58.70;;;39.03;;
10031;SDS011;5056;44.272;19.892;2023-11-19T06:07:32;51.37;;;33.97;;
10031;SDS011;5056;44.272;19.892;2023-11-19T06:10:00;51.17;;;35.60;;
10031;SDS011;5056;44.272;19.892;2023-11-19T06:12:28;52.33;;;35.47;;
10031;SDS011;5056;44.272;19.892;2023-11-19T06:14:54;41.70;;;29.40;;
10031;SDS011;5056;44.272;19.892;2023-11-19T06:17:22;42.00;;;29.10;;
10031;SDS011;5056;44.272;19.892;2023-11-19T06:19:50;40.97;;;28.93;;
10031;SDS011;5056;44.272;19.892;2023-11-19T06:22:18;41.30;;;29.80;;
10031;SDS011;5056;44.272;19.892;2023-11-19T06:24:50;39.83;;;33.43;;
10031;SDS011;5056;44.272;19.892;2023-11-19T06:27:17;38.55;;;33.45;;
10031;SDS011;5056;44.272;19.892;2023-11-19T06:29:44;40.10;;;32.03;;
10031;SDS011;5056;44.272;19.892;2023-11-19T06:32:13;38.83;;;31.73;;
10031;SDS011;5056;44.272;19.892;2023-11-19T06:34:41;47.27;;;35.20;;
10031;SDS011;5056;44.272;19.892;2023-11-19T06:37:09;41.37;;;31.67;;
10031;SDS011;5056;44.272;19.892;2023-11-19T06:39:36;35.70;;;25.83;;
10031;SDS011;5056;44.272;19.892;2023-11-19T06:42:05;31.80;;;23.63;;
10031;SDS011;5056;44.272;19.892;2023-11-19T06:44:32;31.67;;;24.47;;
10031;SDS011;5056;44.272;19.892;2023-11-19T06:47:01;36.40;;;25.70;;
10031;SDS011;5056;44.272;19.892;2023-11-19T06:49:28;34.83;;;24.13;;
10031;SDS011;5056;44.272;19.892;2023-11-19T06:51:55;34.00;;;24.63;;
10031;SDS011;5056;44.272;19.892;2023-11-19T06:54:22;34.70;;;24.33;;
10031;SDS011;5056;44.272;19.892;2023-11-19T06:56:50;33.70;;;25.20;;
10031;SDS011;5056;44.272;19.892;2023-11-19T06:59:21;35.97;;;25.47;;
10031;SDS011;5056;44.272;19.892;2023-11-19T07:01:48;36.10;;;27.40;;
10031;SDS011;5056;44.272;19.892;2023-11-19T07:04:16;41.40;;;28.83;;
10031;SDS011;5056;44.272;19.892;2023-11-19T07:06:44;42.07;;;29.90;;
10031;SDS011;5056;44.272;19.892;2023-11-19T07:09:11;37.37;;;27.83;;
10031;SDS011;5056;44.272;19.892;2023-11-19T07:11:39;26.73;;;21.33;;
10031;SDS011;5056;44.272;19.892;2023-11-19T07:14:09;27.47;;;21.57;;
10031;SDS011;5056;44.272;19.892;2023-11-19T07:16:39;39.23;;;34.90;;
10031;SDS011;5056;44.272;19.892;2023-11-19T07:19:06;109.10;;;98.90;;
10031;SDS011;5056;44.272;19.892;2023-11-19T07:21:33;81.97;;;75.53;;
10031;SDS011;5056;44.272;19.892;2023-11-19T07:24:00;40.27;;;36.77;;
10031;SDS011;5056;44.272;19.892;2023-11-19T07:26:28;29.13;;;26.43;;
10031;SDS011;5056;44.272;19.892;2023-11-19T07:28:56;24.60;;;22.00;;
10031;SDS011;5056;44.272;19.892;2023-11-19T07:31:23;30.87;;;23.73;;
10031;SDS011;5056;44.272;19.892;2023-11-19T07:33:52;22.87;;;17.50;;
10031;SDS011;5056;44.272;19.892;2023-11-19T07:36:19;21.53;;;17.67;;
10031;SDS011;5056;44.272;19.892;2023-11-19T07:38:46;21.53;;;19.23;;
10031;SDS011;5056;44.272;19.892;2023-11-19T07:41:14;21.57;;;16.40;;
10031;SDS011;5056;44.272;19.892;2023-11-19T07:43:43;19.23;;;17.13;;
10031;SDS011;5056;44.272;19.892;2023-11-19T07:46:11;20.17;;;16.40;;
10031;SDS011;5056;44.272;19.892;2023-11-19T07:48:40;20.83;;;17.83;;
10031;SDS011;5056;44.272;19.892;2023-11-19T07:51:10;19.53;;;16.33;;
10031;SDS011;5056;44.272;19.892;2023-11-19T07:53:37;24.27;;;19.40;;
10031;SDS011;5056;44.272;19.892;2023-11-19T07:56:07;21.77;;;17.67;;
10031;SDS011;5056;44.272;19.892;2023-11-19T07:58:35;22.33;;;17.93;;
10031;SDS011;5056;44.272;19.892;2023-11-19T08:01:08;21.67;;;17.30;;
10031;SDS011;5056;44.272;19.892;2023-11-19T08:03:35;16.53;;;14.50;;
10031;SDS011;5056;44.272;19.892;2023-11-19T08:06:03;15.33;;;13.70;;
10031;SDS011;5056;44.272;19.892;2023-11-19T08:08:30;17.90;;;15.23;;
10031;SDS011;5056;44.272;19.892;2023-11-19T08:10:59;115.47;;;87.50;;
10031;SDS011;5056;44.272;19.892;2023-11-19T08:13:26;37.53;;;33.33;;
10031;SDS011;5056;44.272;19.892;2023-11-19T08:15:54;29.87;;;26.70;;
10031;SDS011;5056;44.272;19.892;2023-11-19T08:18:26;15.63;;;14.00;;
10031;SDS011;5056;44.272;19.892;2023-11-19T08:20:53;14.13;;;12.73;;
10031;SDS011;5056;44.272;19.892;2023-11-19T08:23:23;13.37;;;9.83;;
10031;SDS011;5056;44.272;19.892;2023-11-19T08:25:52;10.60;;;9.50;;
10031;SDS011;5056;44.272;19.892;2023-11-19T08:28:19;10.07;;;9.07;;
10031;SDS011;5056;44.272;19.892;2023-11-19T08:30:47;11.33;;;8.90;;
10031;SDS011;5056;44.272;19.892;2023-11-19T08:33:14;8.73;;;7.83;;
10031;SDS011;5056;44.272;19.892;2023-11-19T08:35:42;9.27;;;8.30;;
10031;SDS011;5056;44.272;19.892;2023-11-19T08:38:10;11.43;;;9.77;;
10031;SDS011;5056;44.272;19.892;2023-11-19T08:40:37;8.87;;;7.97;;
10031;SDS011;5056;44.272;19.892;2023-11-19T08:43:07;17.70;;;15.67;;
10031;SDS011;5056;44.272;19.892;2023-11-19T08:45:33;9.77;;;8.77;;
10031;SDS011;5056;44.272;19.892;2023-11-19T08:48:01;12.43;;;9.47;;
10031;SDS011;5056;44.272;19.892;2023-11-19T08:50:29;12.30;;;11.00;;
10031;SDS011;5056;44.272;19.892;2023-11-19T08:52:56;13.37;;;12.03;;
10031;SDS011;5056;44.272;19.892;2023-11-19T08:55:24;36.13;;;32.33;;
10031;SDS011;5056;44.272;19.892;2023-11-19T08:57:52;29.33;;;26.30;;
10031;SDS011;5056;44.272;19.892;2023-11-19T09:00:21;54.07;;;48.70;;
10031;SDS011;5056;44.272;19.892;2023-11-19T09:02:48;31.00;;;28.20;;
10031;SDS011;5056;44.272;19.892;2023-11-19T09:05:15;16.63;;;15.07;;
10031;SDS011;5056;44.272;19.892;2023-11-19T09:07:42;14.07;;;12.67;;
10031;SDS011;5056;44.272;19.892;2023-11-19T09:10:09;13.87;;;12.20;;
10031;SDS011;5056;44.272;19.892;2023-11-19T09:12:37;13.80;;;12.50;;
10031;SDS011;5056;44.272;19.892;2023-11-19T09:15:04;19.87;;;17.87;;
10031;SDS011;5056;44.272;19.892;2023-11-19T09:17:37;16.40;;;14.70;;
10031;SDS011;5056;44.272;19.892;2023-11-19T09:20:05;14.00;;;10.93;;
10031;SDS011;5056;44.272;19.892;2023-11-19T09:22:33;10.17;;;9.13;;
10031;SDS011;5056;44.272;19.892;2023-11-19T09:25:00;10.53;;;9.43;;
10031;SDS011;5056;44.272;19.892;2023-11-19T09:27:30;10.67;;;9.67;;
10031;SDS011;5056;44.272;19.892;2023-11-19T09:29:57;13.77;;;12.43;;
10031;SDS011;5056;44.272;19.892;2023-11-19T09:32:24;12.83;;;11.53;;
10031;SDS011;5056;44.272;19.892;2023-11-19T09:34:54;12.87;;;10.00;;
10031;SDS011;5056;44.272;19.892;2023-11-19T09:37:21;10.63;;;9.53;;
10031;SDS011;5056;44.272;19.892;2023-11-19T09:39:49;15.43;;;11.87;;
10031;SDS011;5056;44.272;19.892;2023-11-19T09:42:15;9.90;;;8.90;;
10031;SDS011;5056;44.272;19.892;2023-11-19T09:44:45;19.57;;;17.30;;
10031;SDS011;5056;44.272;19.892;2023-11-19T09:47:15;20.13;;;17.10;;
10031;SDS011;5056;44.272;19.892;2023-11-19T09:49:44;15.03;;;13.47;;
10031;SDS011;5056;44.272;19.892;2023-11-19T09:52:12;14.83;;;11.73;;
10031;SDS011;5056;44.272;19.892;2023-11-19T09:54:39;64.57;;;52.40;;
10031;SDS011;5056;44.272;19.892;2023-11-19T09:57:06;17.27;;;13.77;;
10031;SDS011;5056;44.272;19.892;2023-11-19T09:59:37;12.23;;;10.93;;
10031;SDS011;5056;44.272;19.892;2023-11-19T10:02:06;12.73;;;11.43;;
10031;SDS011;5056;44.272;19.892;2023-11-19T10:04:35;16.70;;;14.50;;
10031;SDS011;5056;44.272;19.892;2023-11-19T10:07:03;13.00;;;10.97;;
10031;SDS011;5056;44.272;19.892;2023-11-19T10:09:33;11.80;;;10.37;;
10031;SDS011;5056;44.272;19.892;2023-11-19T10:12:00;12.33;;;10.53;;
10031;SDS011;5056;44.272;19.892;2023-11-19T10:14:27;17.43;;;12.07;;
10031;SDS011;5056;44.272;19.892;2023-11-19T10:16:55;16.73;;;14.20;;
10031;SDS011;5056;44.272;19.892;2023-11-19T10:19:23;14.87;;;11.73;;
10031;SDS011;5056;44.272;19.892;2023-11-19T10:21:54;33.27;;;29.67;;
10031;SDS011;5056;44.272;19.892;2023-11-19T10:24:31;90.87;;;63.67;;
10031;SDS011;5056;44.272;19.892;2023-11-19T10:26:59;18.63;;;15.10;;
10031;SDS011;5056;44.272;19.892;2023-11-19T10:29:29;17.33;;;14.67;;
10031;SDS011;5056;44.272;19.892;2023-11-19T10:31:58;14.67;;;12.90;;
10031;SDS011;5056;44.272;19.892;2023-11-19T10:34:26;12.57;;;11.27;;
10031;SDS011;5056;44.272;19.892;2023-11-19T10:36:53;14.20;;;12.70;;
10031;SDS011;5056;44.272;19.892;2023-11-19T10:39:21;13.30;;;11.93;;
10031;SDS011;5056;44.272;19.892;2023-11-19T10:41:51;9.83;;;8.80;;
10031;SDS011;5056;44.272;19.892;2023-11-19T10:47:07;12.30;;;11.00;;
10031;SDS011;5056;44.272;19.892;2023-11-19T10:49:35;11.77;;;10.53;;
10031;SDS011;5056;44.272;19.892;2023-11-19T10:52:03;14.10;;;12.03;;
10031;SDS011;5056;44.272;19.892;2023-11-19T10:54:33;12.33;;;11.07;;
10031;SDS011;5056;44.272;19.892;2023-11-19T10:57:02;11.73;;;10.23;;
10031;SDS011;5056;44.272;19.892;2023-11-19T10:59:31;10.20;;;9.20;;
10031;SDS011;5056;44.272;19.892;2023-11-19T11:01:58;9.97;;;9.00;;
10031;SDS011;5056;44.272;19.892;2023-11-19T11:04:31;9.47;;;8.47;;
10031;SDS011;5056;44.272;19.892;2023-11-19T11:07:00;12.33;;;11.10;;
10031;SDS011;5056;44.272;19.892;2023-11-19T11:09:27;8.90;;;8.10;;
10031;SDS011;5056;44.272;19.892;2023-11-19T11:11:54;9.50;;;8.60;;
10031;SDS011;5056;44.272;19.892;2023-11-19T11:14:25;10.13;;;9.10;;
10031;SDS011;5056;44.272;19.892;2023-11-19T11:16:52;10.00;;;9.07;;
10031;SDS011;5056;44.272;19.892;2023-11-19T11:19:20;14.97;;;13.53;;
10031;SDS011;5056;44.272;19.892;2023-11-19T11:21:49;10.73;;;9.73;;
10031;SDS011;5056;44.272;19.892;2023-11-19T11:24:23;11.10;;;10.10;;
10031;SDS011;5056;44.272;19.892;2023-11-19T11:27:02;11.77;;;10.57;;
10031;SDS011;5056;44.272;19.892;2023-11-19T11:29:45;11.20;;;8.97;;
10031;SDS011;5056;44.272;19.892;2023-11-19T11:32:17;11.30;;;9.10;;
10031;SDS011;5056;44.272;19.892;2023-11-19T11:34:53;10.73;;;9.73;;
10031;SDS011;5056;44.272;19.892;2023-11-19T11:37:31;10.00;;;9.00;;
10031;SDS011;5056;44.272;19.892;2023-11-19T11:40:01;38.33;;;25.40;;
10031;SDS011;5056;44.272;19.892;2023-11-19T11:42:31;27.93;;;18.97;;
10031;SDS011;5056;44.272;19.892;2023-11-19T11:45:03;28.67;;;20.43;;
10031;SDS011;5056;44.272;19.892;2023-11-19T11:53:30;8.23;;;7.30;;
10031;SDS011;5056;44.272;19.892;2023-11-19T11:56:02;9.10;;;8.13;;
10031;SDS011;5056;44.272;19.892;2023-11-19T11:58:34;15.27;;;13.77;;
10031;SDS011;5056;44.272;19.892;2023-11-19T12:01:06;16.70;;;14.90;;
10031;SDS011;5056;44.272;19.892;2023-11-19T12:03:34;17.60;;;12.97;;
10031;SDS011;5056;44.272;19.892;2023-11-19T12:06:03;11.60;;;9.83;;
10031;SDS011;5056;44.272;19.892;2023-11-19T12:08:37;18.33;;;16.63;;
10031;SDS011;5056;44.272;19.892;2023-11-19T12:11:08;15.97;;;14.47;;
10031;SDS011;5056;44.272;19.892;2023-11-19T12:16:29;9.00;;;8.10;;
10031;SDS011;5056;44.272;19.892;2023-11-19T12:19:03;8.70;;;7.90;;
10031;SDS011;5056;44.272;19.892;2023-11-19T12:21:32;8.40;;;7.60;;
10031;SDS011;5056;44.272;19.892;2023-11-19T12:24:02;8.57;;;7.00;;
10031;SDS011;5056;44.272;19.892;2023-11-19T12:26:39;8.47;;;7.00;;
10031;SDS011;5056;44.272;19.892;2023-11-19T12:29:09;5.77;;;5.10;;
10031;SDS011;5056;44.272;19.892;2023-11-19T12:31:41;7.73;;;5.60;;
10031;SDS011;5056;44.272;19.892;2023-11-19T12:34:14;7.10;;;6.27;;
10031;SDS011;5056;44.272;19.892;2023-11-19T12:36:41;10.10;;;9.07;;
10031;SDS011;5056;44.272;19.892;2023-11-19T12:39:08;42.67;;;30.57;;
10031;SDS011;5056;44.272;19.892;2023-11-19T12:44:24;12.93;;;11.70;;
10031;SDS011;5056;44.272;19.892;2023-11-19T12:47:03;31.07;;;27.73;;
10031;SDS011;5056;44.272;19.892;2023-11-19T12:49:31;34.70;;;27.73;;
10031;SDS011;5056;44.272;19.892;2023-11-19T12:51:58;42.63;;;36.17;;
10031;SDS011;5056;44.272;19.892;2023-11-19T12:54:33;23.97;;;21.27;;
10031;SDS011;5056;44.272;19.892;2023-11-19T12:57:00;32.77;;;28.80;;
10031;SDS011;5056;44.272;19.892;2023-11-19T12:59:28;21.13;;;18.37;;
10031;SDS011;5056;44.272;19.892;2023-11-19T13:01:55;15.20;;;13.17;;
10031;SDS011;5056;44.272;19.892;2023-11-19T13:04:27;21.17;;;18.90;;
10031;SDS011;5056;44.272;19.892;2023-11-19T13:06:55;18.40;;;16.60;;
10031;SDS011;5056;44.272;19.892;2023-11-19T13:09:23;15.47;;;13.97;;
10031;SDS011;5056;44.272;19.892;2023-11-19T13:11:51;15.83;;;14.13;;
10031;SDS011;5056;44.272;19.892;2023-11-19T13:14:18;13.67;;;11.30;;
10031;SDS011;5056;44.272;19.892;2023-11-19T13:16:46;12.63;;;11.07;;
10031;SDS011;5056;44.272;19.892;2023-11-19T13:19:14;12.63;;;11.40;;
10031;SDS011;5056;44.272;19.892;2023-11-19T13:21:45;17.30;;;15.57;;
10031;SDS011;5056;44.272;19.892;2023-11-19T13:24:13;13.60;;;11.23;;
10031;SDS011;5056;44.272;19.892;2023-11-19T13:26:41;13.13;;;11.30;;
10031;SDS011;5056;44.272;19.892;2023-11-19T13:29:09;13.27;;;11.87;;
10031;SDS011;5056;44.272;19.892;2023-11-19T13:31:36;14.47;;;11.70;;
10031;SDS011;5056;44.272;19.892;2023-11-19T13:34:04;12.67;;;10.80;;
10031;SDS011;5056;44.272;19.892;2023-11-19T13:36:33;11.70;;;10.50;;
10031;SDS011;5056;44.272;19.892;2023-11-19T13:39:02;14.57;;;13.00;;
10031;SDS011;5056;44.272;19.892;2023-11-19T13:41:32;15.27;;;12.60;;
10031;SDS011;5056;44.272;19.892;2023-11-19T13:43:59;39.23;;;30.37;;
10031;SDS011;5056;44.272;19.892;2023-11-19T13:46:27;25.00;;;20.03;;
10031;SDS011;5056;44.272;19.892;2023-11-19T13:48:55;17.67;;;15.57;;
10031;SDS011;5056;44.272;19.892;2023-11-19T13:51:22;15.00;;;13.50;;
10031;SDS011;5056;44.272;19.892;2023-11-19T13:53:49;13.23;;;11.93;;
10031;SDS011;5056;44.272;19.892;2023-11-19T13:56:22;12.93;;;11.50;;
10031;SDS011;5056;44.272;19.892;2023-11-19T13:58:48;13.47;;;12.17;;
10031;SDS011;5056;44.272;19.892;2023-11-19T14:01:15;11.23;;;10.07;;
10031;SDS011;5056;44.272;19.892;2023-11-19T14:03:43;12.40;;;11.07;;
10031;SDS011;5056;44.272;19.892;2023-11-19T14:06:10;10.73;;;9.63;;
10031;SDS011;5056;44.272;19.892;2023-11-19T14:08:39;9.27;;;7.90;;
10031;SDS011;5056;44.272;19.892;2023-11-19T14:11:09;8.47;;;7.63;;
10031;SDS011;5056;44.272;19.892;2023-11-19T14:13:39;19.97;;;17.87;;
10031;SDS011;5056;44.272;19.892;2023-11-19T14:16:06;13.77;;;11.50;;
10031;SDS011;5056;44.272;19.892;2023-11-19T14:18:34;11.93;;;10.63;;
10031;SDS011;5056;44.272;19.892;2023-11-19T14:21:02;11.47;;;10.43;;
10031;SDS011;5056;44.272;19.892;2023-11-19T14:23:30;17.87;;;15.83;;
10031;SDS011;5056;44.272;19.892;2023-11-19T14:25:58;29.87;;;26.97;;
10031;SDS011;5056;44.272;19.892;2023-11-19T14:28:26;27.57;;;25.03;;
10031;SDS011;5056;44.272;19.892;2023-11-19T14:30:57;19.50;;;16.13;;
10031;SDS011;5056;44.272;19.892;2023-11-19T14:33:24;24.50;;;17.13;;
10031;SDS011;5056;44.272;19.892;2023-11-19T14:35:53;25.07;;;16.80;;
10031;SDS011;5056;44.272;19.892;2023-11-19T14:38:20;25.93;;;15.57;;
10031;SDS011;5056;44.272;19.892;2023-11-19T14:40:48;21.83;;;15.90;;
10031;SDS011;5056;44.272;19.892;2023-11-19T14:43:14;23.40;;;14.90;;
10031;SDS011;5056;44.272;19.892;2023-11-19T14:45:42;23.60;;;16.17;;
10031;SDS011;5056;44.272;19.892;2023-11-19T14:48:15;29.20;;;19.40;;
10031;SDS011;5056;44.272;19.892;2023-11-19T14:50:43;39.87;;;22.43;;
10031;SDS011;5056;44.272;19.892;2023-11-19T14:53:11;31.37;;;20.30;;